sensor_id;sensor_type;location;lat;lon;timestamp;temperature;humidity
674;DHT22;319;48.764;9.174;2024-01-16T00:01:01;2.20;97.00
674;DHT22;319;48.764;9.174;2024-01-16T00:03:28;2.20;97.00
674;DHT22;319;48.764;9.174;2024-01-16T00:05:55;2.10;97.30
674;DHT22;319;48.764;9.174;2024-01-16T00:08:21;2.10;97.10
674;DHT22;319;48.764;9.174;2024-01-16T00:10:48;2.20;97.10
674;DHT22;319;48.764;9.174;2024-01-16T00:13:15;2.20;96.90
674;DHT22;319;48.764;9.174;2024-01-16T00:15:43;2.20;96.90
674;DHT22;319;48.764;9.174;2024-01-16T00:18:10;2.10;97.00
674;DHT22;319;48.764;9.174;2024-01-16T00:20:37;2.00;97.00
674;DHT22;319;48.764;9.174;2024-01-16T00:23:04;2.00;97.20
674;DHT22;319;48.764;9.174;2024-01-16T00:25:34;2.00;97.30
674;DHT22;319;48.764;9.174;2024-01-16T00:28:01;2.00;97.30
674;DHT22;319;48.764;9.174;2024-01-16T00:30:29;2.00;97.20
674;DHT22;319;48.764;9.174;2024-01-16T00:32:58;2.00;97.30
674;DHT22;319;48.764;9.174;2024-01-16T00:35:25;2.00;97.30
674;DHT22;319;48.764;9.174;2024-01-16T00:37:52;2.00;97.30
674;DHT22;319;48.764;9.174;2024-01-16T00:40:18;2.00;97.30
674;DHT22;319;48.764;9.174;2024-01-16T00:42:45;2.00;97.20
674;DHT22;319;48.764;9.174;2024-01-16T00:45:12;2.00;97.30
674;DHT22;319;48.764;9.174;2024-01-16T00:47:39;2.00;97.30
674;DHT22;319;48.764;9.174;2024-01-16T00:50:08;1.90;97.40
674;DHT22;319;48.764;9.174;2024-01-16T00:52:35;1.90;97.40
674;DHT22;319;48.764;9.174;2024-01-16T00:55:02;1.90;97.40
674;DHT22;319;48.764;9.174;2024-01-16T00:57:29;1.90;97.70
674;DHT22;319;48.764;9.174;2024-01-16T00:59:56;2.00;97.50
674;DHT22;319;48.764;9.174;2024-01-16T01:02:23;1.90;97.30
674;DHT22;319;48.764;9.174;2024-01-16T01:04:50;1.90;97.50
674;DHT22;319;48.764;9.174;2024-01-16T01:07:18;2.00;97.50
674;DHT22;319;48.764;9.174;2024-01-16T01:09:45;2.00;97.40
674;DHT22;319;48.764;9.174;2024-01-16T01:12:11;2.10;97.40
674;DHT22;319;48.764;9.174;2024-01-16T01:14:38;2.10;97.20
674;DHT22;319;48.764;9.174;2024-01-16T01:17:05;2.10;97.20
674;DHT22;319;48.764;9.174;2024-01-16T01:19:32;2.10;97.30
674;DHT22;319;48.764;9.174;2024-01-16T01:21:58;2.10;97.60
674;DHT22;319;48.764;9.174;2024-01-16T01:24:26;2.10;97.20
674;DHT22;319;48.764;9.174;2024-01-16T01:26:53;2.10;97.20
674;DHT22;319;48.764;9.174;2024-01-16T01:29:20;2.10;97.20
674;DHT22;319;48.764;9.174;2024-01-16T01:31:47;2.10;97.20
674;DHT22;319;48.764;9.174;2024-01-16T01:34:14;2.10;97.10
674;DHT22;319;48.764;9.174;2024-01-16T01:36:41;2.10;97.00
674;DHT22;319;48.764;9.174;2024-01-16T01:39:08;2.10;97.00
674;DHT22;319;48.764;9.174;2024-01-16T01:41:38;2.10;97.00
674;DHT22;319;48.764;9.174;2024-01-16T01:44:05;2.10;97.00
674;DHT22;319;48.764;9.174;2024-01-16T01:46:33;2.20;97.20
674;DHT22;319;48.764;9.174;2024-01-16T01:49:00;2.10;97.10
674;DHT22;319;48.764;9.174;2024-01-16T01:51:28;2.10;97.00
674;DHT22;319;48.764;9.174;2024-01-16T01:53:55;2.20;97.00
674;DHT22;319;48.764;9.174;2024-01-16T01:56:24;2.20;97.00
674;DHT22;319;48.764;9.174;2024-01-16T01:58:53;2.20;96.90
674;DHT22;319;48.764;9.174;2024-01-16T02:01:21;2.20;97.00
674;DHT22;319;48.764;9.174;2024-01-16T02:03:50;2.20;97.00
674;DHT22;319;48.764;9.174;2024-01-16T02:06:17;2.10;97.10
674;DHT22;319;48.764;9.174;2024-01-16T02:08:44;2.10;97.10
674;DHT22;319;48.764;9.174;2024-01-16T02:11:11;2.10;97.10
674;DHT22;319;48.764;9.174;2024-01-16T02:13:38;2.00;97.10
674;DHT22;319;48.764;9.174;2024-01-16T02:16:17;1.90;97.20
674;DHT22;319;48.764;9.174;2024-01-16T02:18:44;1.90;97.30
674;DHT22;319;48.764;9.174;2024-01-16T02:21:11;1.80;97.30
674;DHT22;319;48.764;9.174;2024-01-16T02:23:40;1.70;97.50
674;DHT22;319;48.764;9.174;2024-01-16T02:26:07;1.70;97.60
674;DHT22;319;48.764;9.174;2024-01-16T02:28:34;1.70;97.70
674;DHT22;319;48.764;9.174;2024-01-16T02:31:01;1.60;97.80
674;DHT22;319;48.764;9.174;2024-01-16T02:33:27;1.60;97.80
674;DHT22;319;48.764;9.174;2024-01-16T02:35:54;1.60;98.00
674;DHT22;319;48.764;9.174;2024-01-16T02:38:21;1.60;97.90
674;DHT22;319;48.764;9.174;2024-01-16T02:40:49;1.60;97.90
674;DHT22;319;48.764;9.174;2024-01-16T02:43:16;1.60;98.00
674;DHT22;319;48.764;9.174;2024-01-16T02:45:43;1.50;97.90
674;DHT22;319;48.764;9.174;2024-01-16T02:48:10;1.50;98.20
674;DHT22;319;48.764;9.174;2024-01-16T02:50:37;1.50;98.20
674;DHT22;319;48.764;9.174;2024-01-16T02:53:04;1.50;98.20
674;DHT22;319;48.764;9.174;2024-01-16T02:55:30;1.50;98.10
674;DHT22;319;48.764;9.174;2024-01-16T02:57:59;1.50;98.20
674;DHT22;319;48.764;9.174;2024-01-16T03:00:25;1.50;98.30
674;DHT22;319;48.764;9.174;2024-01-16T03:02:52;1.50;98.20
674;DHT22;319;48.764;9.174;2024-01-16T03:05:19;1.50;98.20
674;DHT22;319;48.764;9.174;2024-01-16T03:07:45;1.50;98.30
674;DHT22;319;48.764;9.174;2024-01-16T03:10:12;1.50;98.10
674;DHT22;319;48.764;9.174;2024-01-16T03:12:39;1.50;98.10
674;DHT22;319;48.764;9.174;2024-01-16T03:15:08;1.50;98.10
674;DHT22;319;48.764;9.174;2024-01-16T03:17:35;1.50;98.20
674;DHT22;319;48.764;9.174;2024-01-16T03:20:01;1.50;98.10
674;DHT22;319;48.764;9.174;2024-01-16T03:22:29;1.50;98.30
674;DHT22;319;48.764;9.174;2024-01-16T03:24:56;1.60;98.20
674;DHT22;319;48.764;9.174;2024-01-16T03:27:23;1.60;98.00
674;DHT22;319;48.764;9.174;2024-01-16T03:29:50;1.50;98.00
674;DHT22;319;48.764;9.174;2024-01-16T03:32:18;1.50;98.00
674;DHT22;319;48.764;9.174;2024-01-16T03:34:44;1.50;97.90
674;DHT22;319;48.764;9.174;2024-01-16T03:37:11;1.50;97.90
674;DHT22;319;48.764;9.174;2024-01-16T03:39:38;1.50;97.80
674;DHT22;319;48.764;9.174;2024-01-16T03:42:04;1.40;97.90
674;DHT22;319;48.764;9.174;2024-01-16T03:44:31;1.40;98.00
674;DHT22;319;48.764;9.174;2024-01-16T03:46:58;1.40;97.90
674;DHT22;319;48.764;9.174;2024-01-16T03:49:26;1.40;97.90
674;DHT22;319;48.764;9.174;2024-01-16T03:51:53;1.30;97.70
674;DHT22;319;48.764;9.174;2024-01-16T03:54:19;1.20;97.80
674;DHT22;319;48.764;9.174;2024-01-16T03:56:46;1.30;98.00
674;DHT22;319;48.764;9.174;2024-01-16T03:59:13;1.20;97.90
674;DHT22;319;48.764;9.174;2024-01-16T04:01:40;1.20;97.90
674;DHT22;319;48.764;9.174;2024-01-16T04:04:08;1.10;97.90
674;DHT22;319;48.764;9.174;2024-01-16T04:06:37;1.10;98.00
674;DHT22;319;48.764;9.174;2024-01-16T04:09:04;1.10;97.90
674;DHT22;319;48.764;9.174;2024-01-16T04:11:31;1.10;98.00
674;DHT22;319;48.764;9.174;2024-01-16T04:13:58;1.10;98.00
674;DHT22;319;48.764;9.174;2024-01-16T04:16:24;1.10;98.00
674;DHT22;319;48.764;9.174;2024-01-16T04:18:51;1.10;98.00
674;DHT22;319;48.764;9.174;2024-01-16T04:21:18;1.10;98.40
674;DHT22;319;48.764;9.174;2024-01-16T04:23:46;1.10;97.90
674;DHT22;319;48.764;9.174;2024-01-16T04:26:13;1.00;98.00
674;DHT22;319;48.764;9.174;2024-01-16T04:28:40;1.00;98.00
674;DHT22;319;48.764;9.174;2024-01-16T04:31:08;1.00;98.00
674;DHT22;319;48.764;9.174;2024-01-16T04:33:37;1.00;98.00
674;DHT22;319;48.764;9.174;2024-01-16T04:36:04;0.90;98.00
674;DHT22;319;48.764;9.174;2024-01-16T04:38:31;0.90;98.10
674;DHT22;319;48.764;9.174;2024-01-16T04:41:01;0.90;98.10
674;DHT22;319;48.764;9.174;2024-01-16T04:43:27;0.90;98.10
674;DHT22;319;48.764;9.174;2024-01-16T04:45:54;0.90;98.30
674;DHT22;319;48.764;9.174;2024-01-16T04:48:21;0.90;98.30
674;DHT22;319;48.764;9.174;2024-01-16T04:50:48;1.00;98.20
674;DHT22;319;48.764;9.174;2024-01-16T04:53:14;1.00;98.10
674;DHT22;319;48.764;9.174;2024-01-16T04:55:41;1.00;98.00
674;DHT22;319;48.764;9.174;2024-01-16T04:58:09;1.00;97.90
674;DHT22;319;48.764;9.174;2024-01-16T05:00:36;1.00;97.80
674;DHT22;319;48.764;9.174;2024-01-16T05:03:04;1.00;97.70
674;DHT22;319;48.764;9.174;2024-01-16T05:05:31;1.00;97.70
674;DHT22;319;48.764;9.174;2024-01-16T05:08:00;1.00;97.60
674;DHT22;319;48.764;9.174;2024-01-16T05:10:27;1.00;97.70
674;DHT22;319;48.764;9.174;2024-01-16T05:12:54;1.00;97.70
674;DHT22;319;48.764;9.174;2024-01-16T05:15:22;1.00;97.70
674;DHT22;319;48.764;9.174;2024-01-16T05:17:49;1.00;97.50
674;DHT22;319;48.764;9.174;2024-01-16T05:20:15;0.90;97.80
674;DHT22;319;48.764;9.174;2024-01-16T05:22:42;0.90;97.80
674;DHT22;319;48.764;9.174;2024-01-16T05:25:09;0.80;97.70
674;DHT22;319;48.764;9.174;2024-01-16T05:27:36;0.80;97.80
674;DHT22;319;48.764;9.174;2024-01-16T05:30:04;0.80;97.90
674;DHT22;319;48.764;9.174;2024-01-16T05:32:33;0.80;98.00
674;DHT22;319;48.764;9.174;2024-01-16T05:35:01;0.90;98.20
674;DHT22;319;48.764;9.174;2024-01-16T05:37:27;0.90;98.10
674;DHT22;319;48.764;9.174;2024-01-16T05:39:55;0.90;98.10
674;DHT22;319;48.764;9.174;2024-01-16T05:42:23;0.90;98.20
674;DHT22;319;48.764;9.174;2024-01-16T05:44:49;0.90;98.20
674;DHT22;319;48.764;9.174;2024-01-16T05:47:16;0.90;98.10
674;DHT22;319;48.764;9.174;2024-01-16T05:49:44;0.70;98.00
674;DHT22;319;48.764;9.174;2024-01-16T05:52:11;0.70;97.90
674;DHT22;319;48.764;9.174;2024-01-16T05:54:38;0.60;97.70
674;DHT22;319;48.764;9.174;2024-01-16T05:57:05;0.60;97.70
674;DHT22;319;48.764;9.174;2024-01-16T05:59:32;0.60;97.80
674;DHT22;319;48.764;9.174;2024-01-16T06:01:59;0.60;97.90
674;DHT22;319;48.764;9.174;2024-01-16T06:04:26;0.60;97.80
674;DHT22;319;48.764;9.174;2024-01-16T06:06:54;0.60;97.80
674;DHT22;319;48.764;9.174;2024-01-16T06:09:21;0.70;98.00
674;DHT22;319;48.764;9.174;2024-01-16T06:11:47;0.70;97.90
674;DHT22;319;48.764;9.174;2024-01-16T06:14:14;0.70;98.00
674;DHT22;319;48.764;9.174;2024-01-16T06:16:47;0.70;97.80
674;DHT22;319;48.764;9.174;2024-01-16T06:19:13;0.70;97.60
674;DHT22;319;48.764;9.174;2024-01-16T06:21:41;0.80;97.50
674;DHT22;319;48.764;9.174;2024-01-16T06:24:09;0.80;97.40
674;DHT22;319;48.764;9.174;2024-01-16T06:26:37;0.90;97.30
674;DHT22;319;48.764;9.174;2024-01-16T06:29:03;0.80;97.30
674;DHT22;319;48.764;9.174;2024-01-16T06:31:30;0.80;97.30
674;DHT22;319;48.764;9.174;2024-01-16T06:33:57;0.80;97.00
674;DHT22;319;48.764;9.174;2024-01-16T06:36:24;0.80;97.00
674;DHT22;319;48.764;9.174;2024-01-16T06:38:50;0.80;97.00
674;DHT22;319;48.764;9.174;2024-01-16T06:41:18;0.70;97.10
674;DHT22;319;48.764;9.174;2024-01-16T06:43:46;0.70;97.10
674;DHT22;319;48.764;9.174;2024-01-16T06:46:13;0.70;97.40
674;DHT22;319;48.764;9.174;2024-01-16T06:48:40;0.80;97.60
674;DHT22;319;48.764;9.174;2024-01-16T06:51:06;0.80;97.50
674;DHT22;319;48.764;9.174;2024-01-16T06:53:36;0.90;97.30
674;DHT22;319;48.764;9.174;2024-01-16T06:56:03;1.00;96.90
674;DHT22;319;48.764;9.174;2024-01-16T06:58:33;0.90;96.30
674;DHT22;319;48.764;9.174;2024-01-16T07:01:00;1.10;98.40
674;DHT22;319;48.764;9.174;2024-01-16T07:03:28;1.10;97.60
674;DHT22;319;48.764;9.174;2024-01-16T07:05:54;1.20;96.90
674;DHT22;319;48.764;9.174;2024-01-16T07:08:21;1.10;96.40
674;DHT22;319;48.764;9.174;2024-01-16T07:10:48;1.10;96.30
674;DHT22;319;48.764;9.174;2024-01-16T07:13:15;1.10;95.90
674;DHT22;319;48.764;9.174;2024-01-16T07:15:43;1.20;95.60
674;DHT22;319;48.764;9.174;2024-01-16T07:18:10;1.10;95.30
674;DHT22;319;48.764;9.174;2024-01-16T07:20:36;1.10;95.20
674;DHT22;319;48.764;9.174;2024-01-16T07:23:16;1.10;95.10
674;DHT22;319;48.764;9.174;2024-01-16T07:25:44;1.00;94.80
674;DHT22;319;48.764;9.174;2024-01-16T07:28:11;1.10;95.00
674;DHT22;319;48.764;9.174;2024-01-16T07:30:38;1.10;95.00
674;DHT22;319;48.764;9.174;2024-01-16T07:33:06;1.10;95.00
674;DHT22;319;48.764;9.174;2024-01-16T07:35:34;1.10;94.80
674;DHT22;319;48.764;9.174;2024-01-16T07:38:01;1.10;94.50
674;DHT22;319;48.764;9.174;2024-01-16T07:40:28;1.10;94.40
674;DHT22;319;48.764;9.174;2024-01-16T07:42:55;1.10;94.40
674;DHT22;319;48.764;9.174;2024-01-16T07:45:21;1.10;94.50
674;DHT22;319;48.764;9.174;2024-01-16T07:47:48;1.00;94.20
674;DHT22;319;48.764;9.174;2024-01-16T07:50:17;1.00;94.20
674;DHT22;319;48.764;9.174;2024-01-16T07:52:43;1.10;94.40
674;DHT22;319;48.764;9.174;2024-01-16T07:55:10;1.00;94.00
674;DHT22;319;48.764;9.174;2024-01-16T07:57:37;1.00;94.20
674;DHT22;319;48.764;9.174;2024-01-16T08:00:05;1.00;94.10
674;DHT22;319;48.764;9.174;2024-01-16T08:02:37;1.00;94.00
674;DHT22;319;48.764;9.174;2024-01-16T08:05:04;1.10;93.90
674;DHT22;319;48.764;9.174;2024-01-16T08:07:32;1.10;93.80
674;DHT22;319;48.764;9.174;2024-01-16T08:10:00;1.10;93.50
674;DHT22;319;48.764;9.174;2024-01-16T08:12:27;1.20;93.50
674;DHT22;319;48.764;9.174;2024-01-16T08:14:53;1.20;93.20
674;DHT22;319;48.764;9.174;2024-01-16T08:17:20;1.20;93.30
674;DHT22;319;48.764;9.174;2024-01-16T08:19:47;1.20;93.30
674;DHT22;319;48.764;9.174;2024-01-16T08:22:14;1.30;93.10
674;DHT22;319;48.764;9.174;2024-01-16T08:24:42;1.40;93.30
674;DHT22;319;48.764;9.174;2024-01-16T08:27:08;1.50;92.80
674;DHT22;319;48.764;9.174;2024-01-16T08:29:35;1.50;92.50
674;DHT22;319;48.764;9.174;2024-01-16T08:32:05;1.50;92.50
674;DHT22;319;48.764;9.174;2024-01-16T08:34:39;1.60;92.60
674;DHT22;319;48.764;9.174;2024-01-16T08:37:05;1.70;92.40
674;DHT22;319;48.764;9.174;2024-01-16T08:39:32;1.70;92.30
674;DHT22;319;48.764;9.174;2024-01-16T08:42:01;1.80;92.00
674;DHT22;319;48.764;9.174;2024-01-16T08:44:28;1.80;91.90
674;DHT22;319;48.764;9.174;2024-01-16T08:46:55;2.00;91.80
674;DHT22;319;48.764;9.174;2024-01-16T08:49:23;2.00;91.70
674;DHT22;319;48.764;9.174;2024-01-16T08:51:50;2.00;91.80
674;DHT22;319;48.764;9.174;2024-01-16T08:54:17;2.00;91.60
674;DHT22;319;48.764;9.174;2024-01-16T08:56:43;2.10;91.50
674;DHT22;319;48.764;9.174;2024-01-16T08:59:11;2.20;91.60
674;DHT22;319;48.764;9.174;2024-01-16T09:01:38;2.40;91.70
674;DHT22;319;48.764;9.174;2024-01-16T09:04:07;2.40;91.20
674;DHT22;319;48.764;9.174;2024-01-16T09:06:34;2.30;90.90
674;DHT22;319;48.764;9.174;2024-01-16T09:09:01;2.40;91.10
674;DHT22;319;48.764;9.174;2024-01-16T09:11:29;2.40;91.00
674;DHT22;319;48.764;9.174;2024-01-16T09:13:57;2.50;91.10
674;DHT22;319;48.764;9.174;2024-01-16T09:16:25;2.40;90.80
674;DHT22;319;48.764;9.174;2024-01-16T09:18:52;2.50;91.00
674;DHT22;319;48.764;9.174;2024-01-16T09:21:20;2.70;91.10
674;DHT22;319;48.764;9.174;2024-01-16T09:23:47;2.80;90.90
674;DHT22;319;48.764;9.174;2024-01-16T09:26:13;2.90;90.70
674;DHT22;319;48.764;9.174;2024-01-16T09:28:40;3.00;90.50
674;DHT22;319;48.764;9.174;2024-01-16T09:31:07;3.00;90.50
674;DHT22;319;48.764;9.174;2024-01-16T09:33:35;3.10;90.50
674;DHT22;319;48.764;9.174;2024-01-16T09:36:02;3.30;90.50
674;DHT22;319;48.764;9.174;2024-01-16T09:38:29;3.30;90.00
674;DHT22;319;48.764;9.174;2024-01-16T09:40:56;3.40;90.00
674;DHT22;319;48.764;9.174;2024-01-16T09:43:26;3.50;89.50
674;DHT22;319;48.764;9.174;2024-01-16T09:45:55;3.50;88.90
674;DHT22;319;48.764;9.174;2024-01-16T09:48:22;3.60;89.20
674;DHT22;319;48.764;9.174;2024-01-16T09:50:50;3.80;88.90
674;DHT22;319;48.764;9.174;2024-01-16T09:53:17;3.80;88.00
674;DHT22;319;48.764;9.174;2024-01-16T09:55:45;3.80;87.50
674;DHT22;319;48.764;9.174;2024-01-16T09:58:13;3.90;87.10
674;DHT22;319;48.764;9.174;2024-01-16T10:00:42;4.00;87.10
674;DHT22;319;48.764;9.174;2024-01-16T10:03:10;4.10;86.70
674;DHT22;319;48.764;9.174;2024-01-16T10:05:39;4.20;86.50
674;DHT22;319;48.764;9.174;2024-01-16T10:08:07;4.30;86.20
674;DHT22;319;48.764;9.174;2024-01-16T10:10:34;4.50;86.00
674;DHT22;319;48.764;9.174;2024-01-16T10:13:01;4.60;85.50
674;DHT22;319;48.764;9.174;2024-01-16T10:15:31;4.40;85.20
674;DHT22;319;48.764;9.174;2024-01-16T10:17:58;4.70;85.60
674;DHT22;319;48.764;9.174;2024-01-16T10:20:35;4.90;84.90
674;DHT22;319;48.764;9.174;2024-01-16T10:23:02;5.20;84.10
674;DHT22;319;48.764;9.174;2024-01-16T10:25:31;5.40;83.80
674;DHT22;319;48.764;9.174;2024-01-16T10:28:05;5.50;82.70
674;DHT22;319;48.764;9.174;2024-01-16T10:30:36;5.60;81.60
674;DHT22;319;48.764;9.174;2024-01-16T10:33:16;5.70;81.20
674;DHT22;319;48.764;9.174;2024-01-16T10:35:43;5.90;80.30
674;DHT22;319;48.764;9.174;2024-01-16T10:38:20;6.00;80.00
674;DHT22;319;48.764;9.174;2024-01-16T10:41:04;6.00;79.10
674;DHT22;319;48.764;9.174;2024-01-16T10:43:31;5.90;78.90
674;DHT22;319;48.764;9.174;2024-01-16T10:46:07;5.80;78.50
674;DHT22;319;48.764;9.174;2024-01-16T10:48:34;5.80;78.70
674;DHT22;319;48.764;9.174;2024-01-16T10:51:02;5.90;78.70
674;DHT22;319;48.764;9.174;2024-01-16T12:04:41;5.20;77.30
674;DHT22;319;48.764;9.174;2024-01-16T12:07:08;5.10;77.50
674;DHT22;319;48.764;9.174;2024-01-16T12:09:36;5.10;77.00
674;DHT22;319;48.764;9.174;2024-01-16T12:12:03;5.10;76.40
674;DHT22;319;48.764;9.174;2024-01-16T12:14:31;5.10;76.80
674;DHT22;319;48.764;9.174;2024-01-16T12:17:08;5.10;76.10
674;DHT22;319;48.764;9.174;2024-01-16T12:19:36;5.00;75.90
674;DHT22;319;48.764;9.174;2024-01-16T12:22:08;5.10;76.00
674;DHT22;319;48.764;9.174;2024-01-16T12:24:35;5.00;76.50
674;DHT22;319;48.764;9.174;2024-01-16T12:27:02;5.00;76.50
674;DHT22;319;48.764;9.174;2024-01-16T12:29:29;4.90;76.90
674;DHT22;319;48.764;9.174;2024-01-16T12:32:05;4.90;77.10
674;DHT22;319;48.764;9.174;2024-01-16T12:34:33;5.00;76.10
674;DHT22;319;48.764;9.174;2024-01-16T12:37:04;5.00;76.20
674;DHT22;319;48.764;9.174;2024-01-16T12:39:33;4.90;74.50
674;DHT22;319;48.764;9.174;2024-01-16T12:42:01;4.90;74.50
674;DHT22;319;48.764;9.174;2024-01-16T12:44:29;4.80;74.30
674;DHT22;319;48.764;9.174;2024-01-16T12:46:56;4.70;75.30
674;DHT22;319;48.764;9.174;2024-01-16T12:49:24;4.60;75.00
674;DHT22;319;48.764;9.174;2024-01-16T12:51:51;4.60;75.00
674;DHT22;319;48.764;9.174;2024-01-16T12:54:19;4.60;75.90
674;DHT22;319;48.764;9.174;2024-01-16T12:57:00;4.60;75.70
674;DHT22;319;48.764;9.174;2024-01-16T12:59:29;4.60;75.60
674;DHT22;319;48.764;9.174;2024-01-16T13:05:31;4.70;75.90
674;DHT22;319;48.764;9.174;2024-01-16T13:18:32;4.60;74.60
674;DHT22;319;48.764;9.174;2024-01-16T13:21:01;4.20;74.70
674;DHT22;319;48.764;9.174;2024-01-16T13:23:30;6.00;80.20
674;DHT22;319;48.764;9.174;2024-01-16T13:25:57;4.30;76.30
674;DHT22;319;48.764;9.174;2024-01-16T13:28:25;4.50;76.00
674;DHT22;319;48.764;9.174;2024-01-16T13:30:52;4.40;76.10
674;DHT22;319;48.764;9.174;2024-01-16T13:33:19;5.10;75.90
674;DHT22;319;48.764;9.174;2024-01-16T13:35:47;4.70;74.70
674;DHT22;319;48.764;9.174;2024-01-16T13:38:14;4.70;73.70
674;DHT22;319;48.764;9.174;2024-01-16T13:40:42;4.80;73.90
674;DHT22;319;48.764;9.174;2024-01-16T13:43:09;4.50;73.80
674;DHT22;319;48.764;9.174;2024-01-16T13:45:37;4.70;74.40
674;DHT22;319;48.764;9.174;2024-01-16T13:48:16;4.80;75.20
674;DHT22;319;48.764;9.174;2024-01-16T13:50:43;4.70;74.80
674;DHT22;319;48.764;9.174;2024-01-16T13:53:12;4.60;74.80
674;DHT22;319;48.764;9.174;2024-01-16T13:55:39;4.50;74.20
674;DHT22;319;48.764;9.174;2024-01-16T13:58:06;4.50;74.50
674;DHT22;319;48.764;9.174;2024-01-16T14:00:33;4.60;74.50
674;DHT22;319;48.764;9.174;2024-01-16T14:03:01;4.60;74.90
674;DHT22;319;48.764;9.174;2024-01-16T14:05:29;4.70;75.10
674;DHT22;319;48.764;9.174;2024-01-16T14:07:55;4.70;74.50
674;DHT22;319;48.764;9.174;2024-01-16T14:10:24;4.70;73.90
674;DHT22;319;48.764;9.174;2024-01-16T14:12:52;4.60;73.40
674;DHT22;319;48.764;9.174;2024-01-16T14:15:20;4.60;73.50
674;DHT22;319;48.764;9.174;2024-01-16T14:17:50;4.50;73.20
674;DHT22;319;48.764;9.174;2024-01-16T14:20:18;4.50;73.30
674;DHT22;319;48.764;9.174;2024-01-16T14:22:48;4.50;73.60
674;DHT22;319;48.764;9.174;2024-01-16T14:25:15;4.40;74.00
674;DHT22;319;48.764;9.174;2024-01-16T14:27:48;4.50;74.90
674;DHT22;319;48.764;9.174;2024-01-16T14:30:16;4.50;75.20
674;DHT22;319;48.764;9.174;2024-01-16T14:32:44;4.40;76.30
674;DHT22;319;48.764;9.174;2024-01-16T14:35:12;4.30;76.00
674;DHT22;319;48.764;9.174;2024-01-16T14:37:40;4.40;76.00
674;DHT22;319;48.764;9.174;2024-01-16T14:40:07;4.40;75.80
674;DHT22;319;48.764;9.174;2024-01-16T14:42:38;4.40;76.20
674;DHT22;319;48.764;9.174;2024-01-16T14:45:07;4.30;76.00
674;DHT22;319;48.764;9.174;2024-01-16T14:47:37;4.30;74.70
674;DHT22;319;48.764;9.174;2024-01-16T14:50:04;4.30;74.60
674;DHT22;319;48.764;9.174;2024-01-16T14:52:31;4.20;75.30
674;DHT22;319;48.764;9.174;2024-01-16T14:54:58;4.20;76.90
674;DHT22;319;48.764;9.174;2024-01-16T14:57:25;4.10;77.50
674;DHT22;319;48.764;9.174;2024-01-16T14:59:56;4.10;79.10
674;DHT22;319;48.764;9.174;2024-01-16T15:02:24;4.00;80.50
674;DHT22;319;48.764;9.174;2024-01-16T15:04:51;3.90;80.70
674;DHT22;319;48.764;9.174;2024-01-16T15:07:18;3.90;80.80
674;DHT22;319;48.764;9.174;2024-01-16T15:09:45;3.80;81.50
674;DHT22;319;48.764;9.174;2024-01-16T15:12:12;3.70;81.70
674;DHT22;319;48.764;9.174;2024-01-16T15:14:45;3.70;82.50
674;DHT22;319;48.764;9.174;2024-01-16T15:17:15;3.50;82.70
674;DHT22;319;48.764;9.174;2024-01-16T15:19:43;3.40;82.10
674;DHT22;319;48.764;9.174;2024-01-16T15:22:10;3.40;82.00
674;DHT22;319;48.764;9.174;2024-01-16T15:24:37;3.30;82.20
674;DHT22;319;48.764;9.174;2024-01-16T15:27:06;3.30;82.50
674;DHT22;319;48.764;9.174;2024-01-16T15:29:42;3.20;82.60
674;DHT22;319;48.764;9.174;2024-01-16T15:32:12;3.10;82.90
674;DHT22;319;48.764;9.174;2024-01-16T15:34:39;3.10;82.80
674;DHT22;319;48.764;9.174;2024-01-16T15:37:08;2.90;83.50
674;DHT22;319;48.764;9.174;2024-01-16T15:39:35;2.90;83.00
674;DHT22;319;48.764;9.174;2024-01-16T15:42:01;2.90;83.50
674;DHT22;319;48.764;9.174;2024-01-16T15:44:28;2.80;84.00
674;DHT22;319;48.764;9.174;2024-01-16T15:46:56;2.70;84.70
674;DHT22;319;48.764;9.174;2024-01-16T15:49:26;2.70;85.20
674;DHT22;319;48.764;9.174;2024-01-16T15:51:53;2.60;85.00
674;DHT22;319;48.764;9.174;2024-01-16T15:54:22;2.60;85.40
674;DHT22;319;48.764;9.174;2024-01-16T15:56:49;2.60;85.80
674;DHT22;319;48.764;9.174;2024-01-16T15:59:16;2.50;86.20
674;DHT22;319;48.764;9.174;2024-01-16T16:01:43;2.40;86.50
674;DHT22;319;48.764;9.174;2024-01-16T16:04:10;2.40;86.80
674;DHT22;319;48.764;9.174;2024-01-16T16:06:37;2.30;86.80
674;DHT22;319;48.764;9.174;2024-01-16T16:09:05;2.30;87.20
674;DHT22;319;48.764;9.174;2024-01-16T16:11:41;2.30;88.00
674;DHT22;319;48.764;9.174;2024-01-16T16:14:16;2.30;88.70
674;DHT22;319;48.764;9.174;2024-01-16T16:16:48;2.30;89.20
674;DHT22;319;48.764;9.174;2024-01-16T16:19:15;2.20;89.30
674;DHT22;319;48.764;9.174;2024-01-16T16:21:42;2.20;89.60
674;DHT22;319;48.764;9.174;2024-01-16T16:24:10;2.20;90.00
674;DHT22;319;48.764;9.174;2024-01-16T16:26:39;2.10;90.10
674;DHT22;319;48.764;9.174;2024-01-16T16:29:09;2.10;90.50
674;DHT22;319;48.764;9.174;2024-01-16T16:31:37;2.10;90.70
674;DHT22;319;48.764;9.174;2024-01-16T16:34:06;2.00;90.70
674;DHT22;319;48.764;9.174;2024-01-16T16:36:33;2.00;90.80
674;DHT22;319;48.764;9.174;2024-01-16T16:39:00;2.00;90.70
674;DHT22;319;48.764;9.174;2024-01-16T16:41:30;1.90;90.60
674;DHT22;319;48.764;9.174;2024-01-16T16:44:00;1.90;90.30
674;DHT22;319;48.764;9.174;2024-01-16T16:46:27;1.90;90.30
674;DHT22;319;48.764;9.174;2024-01-16T16:48:54;1.80;90.60
674;DHT22;319;48.764;9.174;2024-01-16T16:51:22;1.80;90.90
674;DHT22;319;48.764;9.174;2024-01-16T16:53:50;1.80;91.40
674;DHT22;319;48.764;9.174;2024-01-16T16:56:31;1.80;91.50
674;DHT22;319;48.764;9.174;2024-01-16T16:58:57;1.80;91.90
674;DHT22;319;48.764;9.174;2024-01-16T17:01:29;1.80;92.00
674;DHT22;319;48.764;9.174;2024-01-16T17:04:01;1.70;92.00
674;DHT22;319;48.764;9.174;2024-01-16T17:06:28;1.70;92.00
674;DHT22;319;48.764;9.174;2024-01-16T17:08:55;1.60;91.50
674;DHT22;319;48.764;9.174;2024-01-16T17:11:22;1.50;91.30
674;DHT22;319;48.764;9.174;2024-01-16T17:13:49;1.60;91.40
674;DHT22;319;48.764;9.174;2024-01-16T17:16:17;1.50;91.90
674;DHT22;319;48.764;9.174;2024-01-16T17:18:49;1.50;92.30
674;DHT22;319;48.764;9.174;2024-01-16T17:21:16;1.50;92.30
674;DHT22;319;48.764;9.174;2024-01-16T17:23:43;1.50;92.60
674;DHT22;319;48.764;9.174;2024-01-16T17:26:10;1.50;92.90
674;DHT22;319;48.764;9.174;2024-01-16T17:28:37;1.50;93.10
674;DHT22;319;48.764;9.174;2024-01-16T17:31:04;1.40;93.00
674;DHT22;319;48.764;9.174;2024-01-16T17:33:31;1.40;93.60
674;DHT22;319;48.764;9.174;2024-01-16T17:35:59;1.40;93.50
674;DHT22;319;48.764;9.174;2024-01-16T17:38:29;1.40;93.70
674;DHT22;319;48.764;9.174;2024-01-16T17:40:56;1.40;93.80
674;DHT22;319;48.764;9.174;2024-01-16T17:43:24;1.30;93.80
674;DHT22;319;48.764;9.174;2024-01-16T17:45:51;1.30;94.00
674;DHT22;319;48.764;9.174;2024-01-16T17:48:18;1.30;94.10
674;DHT22;319;48.764;9.174;2024-01-16T17:50:47;1.20;94.00
674;DHT22;319;48.764;9.174;2024-01-16T17:53:15;1.20;94.00
674;DHT22;319;48.764;9.174;2024-01-16T17:55:42;1.20;93.50
674;DHT22;319;48.764;9.174;2024-01-16T17:58:10;1.10;93.40
674;DHT22;319;48.764;9.174;2024-01-16T18:00:37;1.10;93.70
674;DHT22;319;48.764;9.174;2024-01-16T18:03:08;1.10;93.90
674;DHT22;319;48.764;9.174;2024-01-16T18:05:38;1.10;94.00
674;DHT22;319;48.764;9.174;2024-01-16T18:08:09;1.10;94.30
674;DHT22;319;48.764;9.174;2024-01-16T18:10:42;1.10;94.40
674;DHT22;319;48.764;9.174;2024-01-16T18:13:09;1.00;94.30
674;DHT22;319;48.764;9.174;2024-01-16T18:15:36;1.00;94.50
674;DHT22;319;48.764;9.174;2024-01-16T18:18:03;1.00;94.80
674;DHT22;319;48.764;9.174;2024-01-16T18:20:32;1.00;94.90